sensor_id;sensor_type;location;lat;lon;timestamp;pressure;altitude;pressure_sealevel;temperature;humidity
72685;BME280;61365;52.162;4.500;2023-02-01T00:00:51;101964.31;;;7.30;74.70
72685;BME280;61365;52.162;4.500;2023-02-01T00:03:17;101960.09;;;7.35;76.90
72685;BME280;61365;52.162;4.500;2023-02-01T00:05:44;101963.41;;;7.59;76.79
72685;BME280;61365;52.162;4.500;2023-02-01T00:08:21;101961.22;;;7.44;74.10
72685;BME280;61365;52.162;4.500;2023-02-01T00:10:47;101954.94;;;7.10;74.24
72685;BME280;61365;52.162;4.500;2023-02-01T00:13:14;101962.72;;;7.35;77.18
72685;BME280;61365;52.162;4.500;2023-02-01T00:15:40;101971.13;;;7.25;77.57
72685;BME280;61365;52.162;4.500;2023-02-01T00:18:06;101972.59;;;7.17;74.37
72685;BME280;61365;52.162;4.500;2023-02-01T00:20:32;101974.31;;;6.89;74.40
72685;BME280;61365;52.162;4.500;2023-02-01T00:22:59;101963.63;;;7.09;77.61
72685;BME280;61365;52.162;4.500;2023-02-01T00:25:25;101947.22;;;7.13;76.13
72685;BME280;61365;52.162;4.500;2023-02-01T00:27:51;101961.41;;;7.21;75.69
72685;BME280;61365;52.162;4.500;2023-02-01T00:30:18;101961.13;;;7.12;73.31
72685;BME280;61365;52.162;4.500;2023-02-01T00:32:44;101958.34;;;7.05;75.46
72685;BME280;61365;52.162;4.500;2023-02-01T00:35:11;101952.91;;;6.99;75.87
72685;BME280;61365;52.162;4.500;2023-02-01T00:37:37;101950.53;;;7.07;74.81
72685;BME280;61365;52.162;4.500;2023-02-01T00:40:04;101966.19;;;7.07;75.08
72685;BME280;61365;52.162;4.500;2023-02-01T00:42:31;101958.56;;;7.13;74.64
72685;BME280;61365;52.162;4.500;2023-02-01T00:44:57;101944.28;;;7.31;72.76
72685;BME280;61365;52.162;4.500;2023-02-01T00:47:24;101948.44;;;7.24;75.19
72685;BME280;61365;52.162;4.500;2023-02-01T00:49:50;101937.59;;;7.10;74.18
72685;BME280;61365;52.162;4.500;2023-02-01T00:52:17;101930.38;;;7.30;73.73
72685;BME280;61365;52.162;4.500;2023-02-01T00:54:43;101927.75;;;7.30;76.62
72685;BME280;61365;52.162;4.500;2023-02-01T00:57:10;101926.63;;;7.22;73.54
72685;BME280;61365;52.162;4.500;2023-02-01T00:59:36;101932.41;;;7.41;75.47
72685;BME280;61365;52.162;4.500;2023-02-01T01:02:03;101935.59;;;7.30;75.46
72685;BME280;61365;52.162;4.500;2023-02-01T01:04:29;101935.72;;;7.35;76.23
72685;BME280;61365;52.162;4.500;2023-02-01T01:06:55;101935.44;;;7.26;74.33
72685;BME280;61365;52.162;4.500;2023-02-01T01:09:22;101933.53;;;7.49;74.92
72685;BME280;61365;52.162;4.500;2023-02-01T01:11:48;101930.38;;;7.30;74.15
72685;BME280;61365;52.162;4.500;2023-02-01T01:14:16;101932.88;;;7.27;73.63
72685;BME280;61365;52.162;4.500;2023-02-01T01:16:43;101936.19;;;7.21;76.10
72685;BME280;61365;52.162;4.500;2023-02-01T01:19:09;101938.53;;;7.12;76.16
72685;BME280;61365;52.162;4.500;2023-02-01T01:21:35;101939.63;;;7.20;76.73
72685;BME280;61365;52.162;4.500;2023-02-01T01:24:02;101944.09;;;7.25;77.56
72685;BME280;61365;52.162;4.500;2023-02-01T01:26:29;101943.22;;;7.24;75.07
72685;BME280;61365;52.162;4.500;2023-02-01T01:28:57;101938.84;;;7.52;76.91
72685;BME280;61365;52.162;4.500;2023-02-01T01:31:25;101938.09;;;7.56;76.35
72685;BME280;61365;52.162;4.500;2023-02-01T01:33:54;101945.00;;;7.54;74.18
72685;BME280;61365;52.162;4.500;2023-02-01T01:36:23;101934.34;;;7.78;74.46
72685;BME280;61365;52.162;4.500;2023-02-01T01:38:49;101930.63;;;7.40;75.46
72685;BME280;61365;52.162;4.500;2023-02-01T01:41:20;101931.97;;;7.56;75.06
72685;BME280;61365;52.162;4.500;2023-02-01T01:43:57;101928.38;;;7.52;75.14
72685;BME280;61365;52.162;4.500;2023-02-01T01:46:35;101923.25;;;7.55;76.41
72685;BME280;61365;52.162;4.500;2023-02-01T01:49:17;101921.44;;;7.53;73.69
72685;BME280;61365;52.162;4.500;2023-02-01T01:51:57;101924.63;;;7.42;75.02
72685;BME280;61365;52.162;4.500;2023-02-01T01:54:29;101925.91;;;7.57;75.61
72685;BME280;61365;52.162;4.500;2023-02-01T01:57:07;101932.19;;;7.63;75.17
72685;BME280;61365;52.162;4.500;2023-02-01T01:59:41;101933.31;;;7.41;74.70
72685;BME280;61365;52.162;4.500;2023-02-01T02:02:15;101923.47;;;7.63;74.68
72685;BME280;61365;52.162;4.500;2023-02-01T02:04:42;101911.50;;;7.71;74.53
72685;BME280;61365;52.162;4.500;2023-02-01T02:07:17;101907.13;;;7.40;76.69
72685;BME280;61365;52.162;4.500;2023-02-01T02:09:49;101919.75;;;7.55;74.59
72685;BME280;61365;52.162;4.500;2023-02-01T02:12:15;101911.06;;;7.56;74.21
72685;BME280;61365;52.162;4.500;2023-02-01T02:14:42;101907.81;;;7.64;73.43
72685;BME280;61365;52.162;4.500;2023-02-01T02:20:32;101902.69;;;7.68;74.40
72685;BME280;61365;52.162;4.500;2023-02-01T02:29:12;101900.50;;;7.51;75.24
72685;BME280;61365;52.162;4.500;2023-02-01T02:35:51;101909.28;;;7.53;75.55
72685;BME280;61365;52.162;4.500;2023-02-01T02:38:31;101902.03;;;7.44;76.50
72685;BME280;61365;52.162;4.500;2023-02-01T02:44:21;101878.06;;;7.59;75.74
72685;BME280;61365;52.162;4.500;2023-02-01T02:47:24;101862.00;;;7.45;75.16
72685;BME280;61365;52.162;4.500;2023-02-01T02:52:56;101853.34;;;7.46;75.68
72685;BME280;61365;52.162;4.500;2023-02-01T02:55:46;101861.72;;;7.66;74.36
72685;BME280;61365;52.162;4.500;2023-02-01T02:58:16;101861.47;;;7.57;75.38
72685;BME280;61365;52.162;4.500;2023-02-01T03:01:02;101859.66;;;7.55;75.38
72685;BME280;61365;52.162;4.500;2023-02-01T03:03:48;101856.25;;;7.57;74.48
72685;BME280;61365;52.162;4.500;2023-02-01T03:06:34;101858.44;;;7.42;76.49
72685;BME280;61365;52.162;4.500;2023-02-01T03:09:06;101854.81;;;7.36;75.16
72685;BME280;61365;52.162;4.500;2023-02-01T03:11:41;101859.63;;;7.53;75.53
72685;BME280;61365;52.162;4.500;2023-02-01T03:14:33;101859.47;;;7.16;77.35
72685;BME280;61365;52.162;4.500;2023-02-01T03:17:10;101863.97;;;7.53;74.55
72685;BME280;61365;52.162;4.500;2023-02-01T03:19:43;101867.66;;;7.29;76.98
72685;BME280;61365;52.162;4.500;2023-02-01T03:22:20;101865.94;;;7.29;75.00
72685;BME280;61365;52.162;4.500;2023-02-01T03:24:59;101861.47;;;7.25;74.94
72685;BME280;61365;52.162;4.500;2023-02-01T03:27:39;101849.75;;;7.43;74.04
72685;BME280;61365;52.162;4.500;2023-02-01T03:30:21;101846.69;;;7.58;74.64
72685;BME280;61365;52.162;4.500;2023-02-01T03:32:56;101846.19;;;7.39;74.10
72685;BME280;61365;52.162;4.500;2023-02-01T03:41:10;101842.69;;;7.39;75.15
72685;BME280;61365;52.162;4.500;2023-02-01T03:46:32;101846.22;;;7.10;75.54
72685;BME280;61365;52.162;4.500;2023-02-01T03:49:06;101865.22;;;7.04;75.49
72685;BME280;61365;52.162;4.500;2023-02-01T03:51:37;101860.88;;;7.06;76.69
72685;BME280;61365;52.162;4.500;2023-02-01T03:54:09;101863.91;;;7.20;75.21
72685;BME280;61365;52.162;4.500;2023-02-01T03:56:42;101860.63;;;7.26;75.45
72685;BME280;61365;52.162;4.500;2023-02-01T03:59:11;101857.59;;;7.43;76.93
72685;BME280;61365;52.162;4.500;2023-02-01T04:01:38;101852.28;;;7.40;73.06
72685;BME280;61365;52.162;4.500;2023-02-01T04:04:05;101857.72;;;7.17;75.74
72685;BME280;61365;52.162;4.500;2023-02-01T04:06:32;101860.75;;;7.31;74.45
72685;BME280;61365;52.162;4.500;2023-02-01T04:08:58;101869.38;;;7.28;75.04
72685;BME280;61365;52.162;4.500;2023-02-01T04:11:24;101864.94;;;7.26;75.93
72685;BME280;61365;52.162;4.500;2023-02-01T04:13:53;101870.84;;;7.18;75.70
72685;BME280;61365;52.162;4.500;2023-02-01T04:16:19;101860.31;;;6.86;76.86
72685;BME280;61365;52.162;4.500;2023-02-01T04:18:46;101854.19;;;7.15;77.56
72685;BME280;61365;52.162;4.500;2023-02-01T04:21:12;101863.34;;;7.00;76.71
72685;BME280;61365;52.162;4.500;2023-02-01T04:23:38;101845.75;;;6.95;76.21
72685;BME280;61365;52.162;4.500;2023-02-01T04:26:04;101850.53;;;7.10;75.29
72685;BME280;61365;52.162;4.500;2023-02-01T04:28:31;101853.88;;;7.04;76.48
72685;BME280;61365;52.162;4.500;2023-02-01T04:30:57;101857.19;;;6.98;75.00
72685;BME280;61365;52.162;4.500;2023-02-01T04:33:24;101854.81;;;7.06;77.45
72685;BME280;61365;52.162;4.500;2023-02-01T04:35:51;101859.78;;;6.98;75.78
72685;BME280;61365;52.162;4.500;2023-02-01T04:38:17;101858.44;;;7.11;75.55
72685;BME280;61365;52.162;4.500;2023-02-01T04:40:48;101847.72;;;7.02;75.58
72685;BME280;61365;52.162;4.500;2023-02-01T04:43:16;101848.09;;;7.14;76.53
72685;BME280;61365;52.162;4.500;2023-02-01T04:45:47;101841.53;;;6.98;75.84
72685;BME280;61365;52.162;4.500;2023-02-01T04:48:15;101851.88;;;6.95;74.73
72685;BME280;61365;52.162;4.500;2023-02-01T04:50:45;101855.53;;;6.73;76.92
72685;BME280;61365;52.162;4.500;2023-02-01T04:53:16;101843.09;;;6.93;76.97
72685;BME280;61365;52.162;4.500;2023-02-01T04:55:43;101833.50;;;6.92;76.59
72685;BME280;61365;52.162;4.500;2023-02-01T04:58:11;101839.22;;;6.79;76.95
72685;BME280;61365;52.162;4.500;2023-02-01T05:00:37;101834.34;;;6.91;77.38
72685;BME280;61365;52.162;4.500;2023-02-01T05:03:03;101837.34;;;6.74;76.84
72685;BME280;61365;52.162;4.500;2023-02-01T05:05:30;101833.50;;;6.92;77.70
72685;BME280;61365;52.162;4.500;2023-02-01T05:07:56;101843.63;;;6.81;78.61
72685;BME280;61365;52.162;4.500;2023-02-01T05:10:23;101845.34;;;6.81;77.09
72685;BME280;61365;52.162;4.500;2023-02-01T05:12:49;101853.19;;;6.81;76.67
72685;BME280;61365;52.162;4.500;2023-02-01T05:15:34;101852.66;;;6.64;77.80
72685;BME280;61365;52.162;4.500;2023-02-01T05:18:00;101866.63;;;6.66;78.00
72685;BME280;61365;52.162;4.500;2023-02-01T05:20:27;101868.66;;;6.74;77.82
72685;BME280;61365;52.162;4.500;2023-02-01T05:22:53;101881.59;;;6.71;77.49
72685;BME280;61365;52.162;4.500;2023-02-01T05:25:19;101894.38;;;6.91;78.25
72685;BME280;61365;52.162;4.500;2023-02-01T05:27:46;101888.59;;;7.01;78.29
72685;BME280;61365;52.162;4.500;2023-02-01T05:30:12;101876.38;;;7.00;78.04
72685;BME280;61365;52.162;4.500;2023-02-01T05:32:39;101871.75;;;7.20;75.77
72685;BME280;61365;52.162;4.500;2023-02-01T05:35:06;101873.09;;;7.07;76.54
72685;BME280;61365;52.162;4.500;2023-02-01T05:37:32;101863.50;;;7.06;76.91
72685;BME280;61365;52.162;4.500;2023-02-01T05:39:59;101858.25;;;7.05;77.28
72685;BME280;61365;52.162;4.500;2023-02-01T05:42:25;101866.38;;;7.14;78.29
72685;BME280;61365;52.162;4.500;2023-02-01T05:44:51;101876.38;;;7.00;76.24
72685;BME280;61365;52.162;4.500;2023-02-01T05:47:18;101867.94;;;6.80;77.18
72685;BME280;61365;52.162;4.500;2023-02-01T05:49:46;101868.56;;;7.00;77.22
72685;BME280;61365;52.162;4.500;2023-02-01T05:52:12;101872.47;;;7.15;77.05
72685;BME280;61365;52.162;4.500;2023-02-01T05:54:38;101861.56;;;7.28;76.99
72685;BME280;61365;52.162;4.500;2023-02-01T05:57:04;101873.38;;;7.17;77.47
72685;BME280;61365;52.162;4.500;2023-02-01T05:59:31;101874.13;;;7.13;75.49
72685;BME280;61365;52.162;4.500;2023-02-01T06:01:57;101872.34;;;7.12;77.19
72685;BME280;61365;52.162;4.500;2023-02-01T06:04:24;101867.63;;;6.98;76.22
72685;BME280;61365;52.162;4.500;2023-02-01T06:06:50;101868.38;;;6.94;76.99
72685;BME280;61365;52.162;4.500;2023-02-01T06:09:17;101866.03;;;7.03;77.37
72685;BME280;61365;52.162;4.500;2023-02-01T06:11:43;101868.03;;;7.12;76.35
72685;BME280;61365;52.162;4.500;2023-02-01T06:14:09;101883.00;;;6.89;77.42
72685;BME280;61365;52.162;4.500;2023-02-01T06:16:36;101881.28;;;6.89;77.91
72685;BME280;61365;52.162;4.500;2023-02-01T06:19:02;101877.75;;;7.16;76.56
72685;BME280;61365;52.162;4.500;2023-02-01T06:21:28;101876.19;;;6.94;77.99
72685;BME280;61365;52.162;4.500;2023-02-01T06:23:55;101874.94;;;7.10;78.55
72685;BME280;61365;52.162;4.500;2023-02-01T06:26:23;101878.25;;;7.04;77.07
72685;BME280;61365;52.162;4.500;2023-02-01T06:28:49;101889.75;;;7.11;78.13
72685;BME280;61365;52.162;4.500;2023-02-01T06:31:16;101883.75;;;7.14;77.10
72685;BME280;61365;52.162;4.500;2023-02-01T06:33:42;101879.41;;;7.14;77.89
72685;BME280;61365;52.162;4.500;2023-02-01T06:36:09;101886.22;;;7.09;76.59
72685;BME280;61365;52.162;4.500;2023-02-01T06:38:38;101877.78;;;7.48;76.23
72685;BME280;61365;52.162;4.500;2023-02-01T06:41:04;101885.31;;;7.38;75.00
72685;BME280;61365;52.162;4.500;2023-02-01T06:43:31;101876.00;;;7.47;75.34
72685;BME280;61365;52.162;4.500;2023-02-01T06:46:02;101881.75;;;7.35;75.84
72685;BME280;61365;52.162;4.500;2023-02-01T06:48:30;101879.59;;;7.51;74.75
72685;BME280;61365;52.162;4.500;2023-02-01T06:50:58;101881.94;;;7.42;75.06
72685;BME280;61365;52.162;4.500;2023-02-01T06:53:25;101882.53;;;7.31;76.12
72685;BME280;61365;52.162;4.500;2023-02-01T06:55:58;101878.81;;;7.23;77.01
72685;BME280;61365;52.162;4.500;2023-02-01T06:58:31;101882.97;;;7.16;76.36
72685;BME280;61365;52.162;4.500;2023-02-01T07:01:05;101878.81;;;7.23;77.50
72685;BME280;61365;52.162;4.500;2023-02-01T07:03:32;101875.91;;;7.44;77.41
72685;BME280;61365;52.162;4.500;2023-02-01T07:05:59;101879.63;;;7.22;76.24
72685;BME280;61365;52.162;4.500;2023-02-01T07:08:29;101878.94;;;7.28;77.24
72685;BME280;61365;52.162;4.500;2023-02-01T07:10:56;101874.28;;;7.17;77.57
72685;BME280;61365;52.162;4.500;2023-02-01T07:13:23;101892.31;;;7.10;76.81
72685;BME280;61365;52.162;4.500;2023-02-01T07:15:49;101890.38;;;7.31;76.60
72685;BME280;61365;52.162;4.500;2023-02-01T07:18:15;101874.72;;;7.02;76.39
72685;BME280;61365;52.162;4.500;2023-02-01T07:20:42;101873.69;;;7.26;77.16
72685;BME280;61365;52.162;4.500;2023-02-01T07:23:10;101885.91;;;7.29;75.89
72685;BME280;61365;52.162;4.500;2023-02-01T07:25:36;101889.25;;;7.23;76.90
72685;BME280;61365;52.162;4.500;2023-02-01T07:28:03;101889.19;;;7.21;76.65
72685;BME280;61365;52.162;4.500;2023-02-01T07:30:29;101890.53;;;7.09;77.28
72685;BME280;61365;52.162;4.500;2023-02-01T07:32:55;101893.91;;;7.04;75.52
72685;BME280;61365;52.162;4.500;2023-02-01T07:35:25;101898.41;;;6.81;77.43
72685;BME280;61365;52.162;4.500;2023-02-01T07:37:51;101904.94;;;6.96;77.77
72685;BME280;61365;52.162;4.500;2023-02-01T07:40:17;101903.47;;;7.04;76.97
72685;BME280;61365;52.162;4.500;2023-02-01T07:42:44;101906.81;;;7.00;77.75
72685;BME280;61365;52.162;4.500;2023-02-01T07:45:11;101914.50;;;6.95;77.66
72685;BME280;61365;52.162;4.500;2023-02-01T07:47:39;101920.47;;;6.91;77.62
72685;BME280;61365;52.162;4.500;2023-02-01T07:50:06;101922.34;;;6.95;77.72
72685;BME280;61365;52.162;4.500;2023-02-01T07:52:33;101918.50;;;7.13;78.65
72685;BME280;61365;52.162;4.500;2023-02-01T07:54:59;101930.19;;;6.97;77.15
72685;BME280;61365;52.162;4.500;2023-02-01T07:57:25;101919.19;;;7.05;77.62
72685;BME280;61365;52.162;4.500;2023-02-01T07:59:51;101923.50;;;7.05;76.29
72685;BME280;61365;52.162;4.500;2023-02-01T08:02:39;101917.16;;;6.97;77.14
72685;BME280;61365;52.162;4.500;2023-02-01T08:05:06;101906.13;;;7.05;77.23
72685;BME280;61365;52.162;4.500;2023-02-01T08:07:33;101909.28;;;7.24;76.78
72685;BME280;61365;52.162;4.500;2023-02-01T08:09:59;101893.53;;;7.21;75.99
72685;BME280;61365;52.162;4.500;2023-02-01T08:12:27;101896.84;;;7.15;77.60
72685;BME280;61365;52.162;4.500;2023-02-01T08:14:53;101893.47;;;7.19;76.34
72685;BME280;61365;52.162;4.500;2023-02-01T08:17:22;101892.06;;;7.31;76.39
72685;BME280;61365;52.162;4.500;2023-02-01T08:19:48;101888.72;;;7.35;75.15
72685;BME280;61365;52.162;4.500;2023-02-01T08:22:14;101877.78;;;7.48;76.83
72685;BME280;61365;52.162;4.500;2023-02-01T08:24:41;101879.09;;;7.96;75.48
72685;BME280;61365;52.162;4.500;2023-02-01T08:27:07;101887.50;;;7.86;75.54
72685;BME280;61365;52.162;4.500;2023-02-01T08:29:34;101872.38;;;8.06;74.31
72685;BME280;61365;52.162;4.500;2023-02-01T08:32:00;101885.56;;;8.11;72.66
72685;BME280;61365;52.162;4.500;2023-02-01T08:34:27;101880.09;;;7.68;72.94
72685;BME280;61365;52.162;4.500;2023-02-01T08:36:53;101891.06;;;7.88;72.83
72685;BME280;61365;52.162;4.500;2023-02-01T08:39:26;101896.91;;;8.11;73.25
72685;BME280;61365;52.162;4.500;2023-02-01T08:41:52;101891.41;;;8.01;73.01
72685;BME280;61365;52.162;4.500;2023-02-01T08:44:37;101891.97;;;7.90;74.47
72685;BME280;61365;52.162;4.500;2023-02-01T08:47:04;101880.09;;;8.02;73.65
72685;BME280;61365;52.162;4.500;2023-02-01T08:49:30;101868.25;;;7.81;73.55
72685;BME280;61365;52.162;4.500;2023-02-01T08:51:59;101868.75;;;8.01;72.33
72685;BME280;61365;52.162;4.500;2023-02-01T08:54:25;101880.19;;;8.05;73.92
72685;BME280;61365;52.162;4.500;2023-02-01T08:56:51;101868.09;;;8.45;71.40
72685;BME280;61365;52.162;4.500;2023-02-01T08:59:19;101863.78;;;8.10;73.21
72685;BME280;61365;52.162;4.500;2023-02-01T09:01:45;101863.63;;;8.41;72.04
72685;BME280;61365;52.162;4.500;2023-02-01T09:04:12;101869.56;;;8.34;72.11
72685;BME280;61365;52.162;4.500;2023-02-01T09:06:40;101863.41;;;7.96;71.45
72685;BME280;61365;52.162;4.500;2023-02-01T09:09:07;101866.97;;;8.00;73.49
72685;BME280;61365;52.162;4.500;2023-02-01T09:11:34;101864.28;;;7.97;71.83
72685;BME280;61365;52.162;4.500;2023-02-01T09:14:00;101852.28;;;8.04;72.98
72685;BME280;61365;52.162;4.500;2023-02-01T09:16:27;101862.44;;;8.26;71.94
72685;BME280;61365;52.162;4.500;2023-02-01T09:18:53;101845.13;;;7.98;73.32
72685;BME280;61365;52.162;4.500;2023-02-01T09:21:19;101851.00;;;8.23;71.68
72685;BME280;61365;52.162;4.500;2023-02-01T09:23:45;101853.66;;;8.24;71.81
72685;BME280;61365;52.162;4.500;2023-02-01T09:26:14;101866.69;;;8.23;71.59
72685;BME280;61365;52.162;4.500;2023-02-01T09:28:40;101860.06;;;8.37;71.49
72685;BME280;61365;52.162;4.500;2023-02-01T09:31:07;101871.22;;;8.30;72.79
72685;BME280;61365;52.162;4.500;2023-02-01T09:33:33;101858.63;;;8.14;73.58
72685;BME280;61365;52.162;4.500;2023-02-01T09:36:02;101870.28;;;8.26;71.13
72685;BME280;61365;52.162;4.500;2023-02-01T09:38:31;101871.19;;;8.29;73.15
72685;BME280;61365;52.162;4.500;2023-02-01T09:40:58;101886.16;;;8.34;72.11
72685;BME280;61365;52.162;4.500;2023-02-01T09:43:48;101879.91;;;8.29;73.80
72685;BME280;61365;52.162;4.500;2023-02-01T09:46:32;101889.38;;;8.24;73.13
72685;BME280;61365;52.162;4.500;2023-02-01T09:49:04;101871.34;;;8.01;72.95
72685;BME280;61365;52.162;4.500;2023-02-01T09:51:48;101862.81;;;8.07;73.30
72685;BME280;61365;52.162;4.500;2023-02-01T09:54:26;101856.22;;;8.23;73.04
72685;BME280;61365;52.162;4.500;2023-02-01T09:57:06;101864.03;;;8.21;72.10
72685;BME280;61365;52.162;4.500;2023-02-01T10:00:00;101879.47;;;8.12;73.16
72685;BME280;61365;52.162;4.500;2023-02-01T10:02:36;101879.97;;;8.31;73.16
72685;BME280;61365;52.162;4.500;2023-02-01T10:05:11;101888.53;;;8.25;72.86
72685;BME280;61365;52.162;4.500;2023-02-01T10:08:08;101876.63;;;8.38;70.72
72685;BME280;61365;52.162;4.500;2023-02-01T10:10:46;101870.94;;;8.18;72.49
72685;BME280;61365;52.162;4.500;2023-02-01T10:16:17;101879.34;;;8.06;72.16
72685;BME280;61365;52.162;4.500;2023-02-01T10:28:36;101872.38;;;8.41;72.65
72685;BME280;61365;52.162;4.500;2023-02-01T10:31:08;101886.59;;;8.51;73.14
72685;BME280;61365;52.162;4.500;2023-02-01T10:33:47;101876.38;;;8.27;73.37
72685;BME280;61365;52.162;4.500;2023-02-01T10:36:23;101872.50;;;8.46;73.16
72685;BME280;61365;52.162;4.500;2023-02-01T10:39:00;101881.16;;;8.44;73.89
72685;BME280;61365;52.162;4.500;2023-02-01T10:41:35;101867.69;;;8.28;73.46
72685;BME280;61365;52.162;4.500;2023-02-01T10:44:12;101882.19;;;8.15;73.38
72685;BME280;61365;52.162;4.500;2023-02-01T10:46:41;101876.44;;;8.29;73.34
72685;BME280;61365;52.162;4.500;2023-02-01T10:49:13;101868.09;;;8.10;74.23
72685;BME280;61365;52.162;4.500;2023-02-01T10:51:57;101875.25;;;8.17;73.30
72685;BME280;61365;52.162;4.500;2023-02-01T10:54:42;101882.53;;;8.29;73.08
72685;BME280;61365;52.162;4.500;2023-02-01T10:57:11;101872.34;;;8.40;73.19
72685;BME280;61365;52.162;4.500;2023-02-01T10:59:47;101877.28;;;8.27;72.14
72685;BME280;61365;52.162;4.500;2023-02-01T11:05:02;101873.31;;;8.44;73.44
72685;BME280;61365;52.162;4.500;2023-02-01T11:07:32;101876.69;;;8.39;74.14
72685;BME280;61365;52.162;4.500;2023-02-01T11:09:58;101875.41;;;8.59;73.40
72685;BME280;61365;52.162;4.500;2023-02-01T11:12:36;101859.53;;;8.51;72.04
72685;BME280;61365;52.162;4.500;2023-02-01T11:15:14;101855.00;;;8.80;70.20
72685;BME280;61365;52.162;4.500;2023-02-01T11:17:46;101862.22;;;8.52;72.83
72685;BME280;61365;52.162;4.500;2023-02-01T11:20:20;101862.69;;;8.37;72.11
72685;BME280;61365;52.162;4.500;2023-02-01T11:22:59;101856.53;;;8.35;72.34
72685;BME280;61365;52.162;4.500;2023-02-01T11:25:27;101866.78;;;8.61;72.62
72685;BME280;61365;52.162;4.500;2023-02-01T11:27:55;101865.16;;;8.66;71.70
72685;BME280;61365;52.162;4.500;2023-02-01T11:30:33;101864.94;;;8.57;73.05
72685;BME280;61365;52.162;4.500;2023-02-01T11:33:03;101853.25;;;8.79;72.16
72685;BME280;61365;52.162;4.500;2023-02-01T11:35:31;101844.41;;;8.76;72.42
72685;BME280;61365;52.162;4.500;2023-02-01T11:38:11;101850.19;;;9.00;71.26
72685;BME280;61365;52.162;4.500;2023-02-01T11:40:46;101849.66;;;8.76;70.91
72685;BME280;61365;52.162;4.500;2023-02-01T11:46:01;101855.63;;;8.68;71.55
72685;BME280;61365;52.162;4.500;2023-02-01T11:48:33;101855.72;;;8.75;72.03
72685;BME280;61365;52.162;4.500;2023-02-01T11:54:02;101854.88;;;8.39;72.69
72685;BME280;61365;52.162;4.500;2023-02-01T12:05:58;101834.22;;;8.50;72.38
72685;BME280;61365;52.162;4.500;2023-02-01T12:09:11;101833.84;;;8.69;71.38
72685;BME280;61365;52.162;4.500;2023-02-01T12:11:55;101834.72;;;8.70;71.50
72685;BME280;61365;52.162;4.500;2023-02-01T12:23:19;101822.78;;;8.84;71.54
72685;BME280;61365;52.162;4.500;2023-02-01T12:44:18;101829.31;;;9.46;68.87
72685;BME280;61365;52.162;4.500;2023-02-01T12:46:50;101830.31;;;9.10;70.96
72685;BME280;61365;52.162;4.500;2023-02-01T12:52:14;101827.13;;;9.24;70.19
72685;BME280;61365;52.162;4.500;2023-02-01T12:54:53;101833.84;;;9.11;71.40
72685;BME280;61365;52.162;4.500;2023-02-01T12:57:36;101822.66;;;9.18;72.42
72685;BME280;61365;52.162;4.500;2023-02-01T13:01:12;101829.91;;;9.31;69.58
72685;BME280;61365;52.162;4.500;2023-02-01T13:03:41;101822.44;;;9.53;69.98
72685;BME280;61365;52.162;4.500;2023-02-01T13:06:22;101819.22;;;9.67;69.07
72685;BME280;61365;52.162;4.500;2023-02-01T13:11:53;101823.69;;;9.74;69.42
72685;BME280;61365;52.162;4.500;2023-02-01T13:14:48;101825.06;;;9.53;70.59
72685;BME280;61365;52.162;4.500;2023-02-01T13:17:23;101816.44;;;9.59;69.49
72685;BME280;61365;52.162;4.500;2023-02-01T13:20:00;101829.78;;;9.71;70.22
72685;BME280;61365;52.162;4.500;2023-02-01T13:22:41;101821.88;;;9.68;70.93
72685;BME280;61365;52.162;4.500;2023-02-01T13:25:17;101812.22;;;9.66;70.98
72685;BME280;61365;52.162;4.500;2023-02-01T13:27:54;101816.50;;;9.62;69.39
72685;BME280;61365;52.162;4.500;2023-02-01T13:30:46;101827.63;;;9.50;69.15
72685;BME280;61365;52.162;4.500;2023-02-01T13:33:32;101834.50;;;9.43;71.47
72685;BME280;61365;52.162;4.500;2023-02-01T13:36:38;101836.34;;;9.49;69.89
72685;BME280;61365;52.162;4.500;2023-02-01T13:39:38;101826.63;;;9.43;70.38
72685;BME280;61365;52.162;4.500;2023-02-01T13:45:00;101830.81;;;9.32;72.03
72685;BME280;61365;52.162;4.500;2023-02-01T13:47:39;101828.84;;;9.22;72.85
72685;BME280;61365;52.162;4.500;2023-02-01T13:50:23;101830.56;;;9.21;72.49
72685;BME280;61365;52.162;4.500;2023-02-01T13:52:56;101827.16;;;9.25;73.14
72685;BME280;61365;52.162;4.500;2023-02-01T13:55:32;101830.09;;;9.42;71.54
72685;BME280;61365;52.162;4.500;2023-02-01T14:00:49;101820.56;;;9.46;71.35
72685;BME280;61365;52.162;4.500;2023-02-01T14:03:43;101823.66;;;9.25;71.77
72685;BME280;61365;52.162;4.500;2023-02-01T14:06:17;101815.38;;;9.48;72.78
72685;BME280;61365;52.162;4.500;2023-02-01T14:09:34;101812.41;;;9.30;72.65
72685;BME280;61365;52.162;4.500;2023-02-01T14:17:49;101819.69;;;9.44;73.53
72685;BME280;61365;52.162;4.500;2023-02-01T14:20:43;101814.78;;;9.64;72.33
72685;BME280;61365;52.162;4.500;2023-02-01T14:23:16;101814.25;;;9.36;72.04
72685;BME280;61365;52.162;4.500;2023-02-01T14:25:47;101820.13;;;9.24;72.60
72685;BME280;61365;52.162;4.500;2023-02-01T14:28:29;101819.22;;;9.22;74.69
72685;BME280;61365;52.162;4.500;2023-02-01T14:30:57;101820.81;;;9.14;72.42
72685;BME280;61365;52.162;4.500;2023-02-01T14:33:27;101822.81;;;9.27;72.11
72685;BME280;61365;52.162;4.500;2023-02-01T14:36:06;101816.53;;;9.18;73.39
72685;BME280;61365;52.162;4.500;2023-02-01T14:38:36;101829.75;;;9.25;73.59
72685;BME280;61365;52.162;4.500;2023-02-01T14:41:33;101820.13;;;9.24;73.15
72685;BME280;61365;52.162;4.500;2023-02-01T14:50:07;101845.09;;;9.07;73.58
72685;BME280;61365;52.162;4.500;2023-02-01T14:52:42;101852.81;;;8.99;74.32
72685;BME280;61365;52.162;4.500;2023-02-01T14:55:17;101853.78;;;9.04;74.10
72685;BME280;61365;52.162;4.500;2023-02-01T14:57:52;101856.63;;;9.15;74.28
72685;BME280;61365;52.162;4.500;2023-02-01T15:00:28;101848.56;;;9.04;74.21
72685;BME280;61365;52.162;4.500;2023-02-01T15:05:58;101845.63;;;8.90;75.27
72685;BME280;61365;52.162;4.500;2023-02-01T15:08:37;101852.09;;;9.06;76.30
72685;BME280;61365;52.162;4.500;2023-02-01T15:11:12;101853.78;;;9.04;75.10
72685;BME280;61365;52.162;4.500;2023-02-01T15:13:48;101855.41;;;8.99;75.78
72685;BME280;61365;52.162;4.500;2023-02-01T15:16:17;101848.97;;;8.84;75.05